Time;durP1;ratioP1;P1;durP2;ratioP2;P2;SDS_P1;SDS_P2;PMS_P1;PMS_P2;Temp;Humidity;BMP_temperature;BMP_pressure;BME280_temperature;BME280_humidity;BME280_pressure;Samples;Min_cycle;Max_cycle;Signal;HPM_P1;HPM_P2
2023/11/18 00:01:33;;;;;;;25.40;17.55;;;7.20;99.90;;;;;;5076797;28;20379;-89
2023/11/18 00:04:01;;;;;;;23.85;16.63;;;7.20;99.90;;;;;;5062213;28;20456;-88
2023/11/18 00:06:26;;;;;;;23.20;16.55;;;7.20;99.90;;;;;;5057417;28;20052;-88
2023/11/18 00:08:52;;;;;;;26.98;17.55;;;7.20;99.90;;;;;;5072948;28;20051;-90
2023/11/18 00:11:18;;;;;;;22.75;16.45;;;7.20;99.90;;;;;;5060588;28;20390;-90
2023/11/18 00:13:44;;;;;;;22.45;16.25;;;7.30;99.90;;;;;;5075334;28;20080;-89
2023/11/18 00:16:26;;;;;;;24.67;16.92;;;7.30;99.90;;;;;;5071445;28;20063;-88
2023/11/18 00:18:53;;;;;;;21.58;15.20;;;7.30;99.90;;;;;;5057057;28;20067;-89
2023/11/18 00:21:19;;;;;;;22.45;16.15;;;7.30;99.90;;;;;;5057019;28;20170;-89
2023/11/18 00:23:49;;;;;;;23.35;15.95;;;7.40;99.90;;;;;;5056703;28;20499;-89
2023/11/18 00:26:17;;;;;;;21.63;15.93;;;7.40;99.90;;;;;;5040812;28;20086;-89
2023/11/18 00:28:48;;;;;;;23.65;15.82;;;7.40;99.90;;;;;;5077375;28;20025;-88
2023/11/18 00:31:14;;;;;;;24.30;16.05;;;7.40;99.90;;;;;;5078497;28;20020;-89
2023/11/18 00:33:40;;;;;;;23.50;15.10;;;7.50;99.90;;;;;;5068244;28;20143;-89
2023/11/18 00:36:10;;;;;;;22.90;16.10;;;7.50;99.90;;;;;;5096154;28;20171;-88
2023/11/18 00:38:35;;;;;;;23.30;16.40;;;7.50;99.90;;;;;;5063717;28;20020;-89
2023/11/18 00:41:06;;;;;;;23.75;15.93;;;7.50;99.90;;;;;;5088518;28;20028;-89
2023/11/18 00:43:34;;;;;;;22.88;16.40;;;7.50;99.90;;;;;;5079220;28;20039;-88
2023/11/18 00:46:01;;;;;;;25.10;16.15;;;7.50;99.90;;;;;;5063114;28;20421;-89
2023/11/18 00:48:28;;;;;;;22.13;15.65;;;7.50;99.90;;;;;;5077543;28;20111;-89
2023/11/18 00:50:53;;;;;;;22.20;15.43;;;7.40;99.90;;;;;;5084488;28;20067;-89
2023/11/18 00:53:19;;;;;;;22.90;16.55;;;7.50;99.90;;;;;;5039760;28;20423;-90
2023/11/18 00:55:48;;;;;;;24.77;17.48;;;7.40;99.90;;;;;;5055898;28;20024;-89
2023/11/18 00:58:20;;;;;;;25.90;17.13;;;7.40;99.90;;;;;;5056667;28;20020;-89
2023/11/18 01:00:46;;;;;;;23.88;16.30;;;7.40;99.90;;;;;;5056458;28;20032;-89
2023/11/18 01:03:12;;;;;;;23.13;16.42;;;7.40;99.90;;;;;;5063435;28;20052;-89
2023/11/18 01:05:38;;;;;;;23.17;16.52;;;7.40;99.90;;;;;;5076318;28;20482;-89
2023/11/18 01:08:05;;;;;;;23.45;16.40;;;7.30;99.90;;;;;;5086797;28;20039;-89
2023/11/18 01:10:31;;;;;;;23.30;14.63;;;7.30;99.90;;;;;;5056005;28;20036;-86
2023/11/18 01:12:57;;;;;;;22.52;15.75;;;7.30;99.90;;;;;;5056517;28;20043;-86
2023/11/18 01:15:24;;;;;;;21.65;15.68;;;7.20;99.90;;;;;;5056571;28;20159;-86
2023/11/18 01:17:49;;;;;;;21.90;15.10;;;7.20;99.90;;;;;;5039498;28;20024;-86
2023/11/18 01:20:20;;;;;;;20.65;14.38;;;7.20;99.90;;;;;;5073793;28;20032;-87
2023/11/18 01:22:48;;;;;;;;;;;7.10;99.90;;;;;;5024611;28;20039;-87
2023/11/18 01:25:17;;;;;;;22.38;15.15;;;7.00;99.90;;;;;;5056362;28;19901;-86
2023/11/18 01:27:46;;;;;;;20.77;14.52;;;7.00;99.90;;;;;;5040103;28;20020;-86
2023/11/18 01:30:13;;;;;;;18.48;13.73;;;7.00;99.90;;;;;;5056482;28;20025;-87
2023/11/18 01:32:39;;;;;;;19.25;13.48;;;6.90;99.90;;;;;;5040229;28;20052;-87
2023/11/18 01:35:05;;;;;;;20.33;14.48;;;6.90;99.90;;;;;;5056927;28;20082;-88
2023/11/18 01:37:31;;;;;;;18.20;13.32;;;6.80;99.90;;;;;;5023766;28;20024;-87
2023/11/18 01:39:57;;;;;;;19.35;13.95;;;6.80;99.90;;;;;;5056456;28;20021;-87
2023/11/18 01:42:23;;;;;;;20.77;14.35;;;6.80;99.90;;;;;;5039998;28;20436;-87
2023/11/18 01:44:48;;;;;;;18.48;14.52;;;6.70;99.90;;;;;;5056475;28;20032;-87
2023/11/18 01:47:14;;;;;;;19.95;14.73;;;6.70;99.90;;;;;;5056437;28;20020;-86
2023/11/18 01:49:41;;;;;;;19.00;13.93;;;6.70;99.90;;;;;;5039799;28;20021;-86
2023/11/18 01:52:10;;;;;;;22.45;14.35;;;6.70;99.90;;;;;;5056475;28;20024;-87
2023/11/18 01:54:40;;;;;;;21.33;15.02;;;6.70;99.90;;;;;;5056439;28;20021;-86
2023/11/18 01:57:06;;;;;;;20.63;14.02;;;6.60;99.90;;;;;;5023650;28;20515;-87
2023/11/18 01:59:33;;;;;;;22.08;14.57;;;6.60;99.90;;;;;;5056460;28;20109;-88
2023/11/18 02:01:59;;;;;;;18.80;14.70;;;6.60;99.90;;;;;;5068576;28;20104;-87
2023/11/18 02:04:26;;;;;;;21.42;15.23;;;6.60;99.90;;;;;;5063703;28;20043;-87
2023/11/18 02:06:52;;;;;;;22.85;15.15;;;6.60;99.90;;;;;;5080360;28;20013;-87
2023/11/18 02:09:27;;;;;;;23.52;15.45;;;6.70;99.90;;;;;;5064182;28;20020;-86
2023/11/18 02:12:04;;;;;;;21.50;15.63;;;6.70;99.90;;;;;;5064451;28;20035;-87
2023/11/18 02:14:33;;;;;;;21.20;15.43;;;6.70;99.90;;;;;;5067485;28;20028;-87
2023/11/18 02:17:01;;;;;;;23.15;15.30;;;6.70;99.90;;;;;;5039651;28;20024;-86
2023/11/18 02:19:27;;;;;;;23.98;15.32;;;6.70;99.90;;;;;;5056087;28;20326;-86
2023/11/18 02:21:54;;;;;;;26.50;16.92;;;6.80;99.90;;;;;;5042665;28;20115;-86
2023/11/18 02:24:45;;;;;;;23.20;16.02;;;6.80;99.90;;;;;;5077330;28;20017;-87
2023/11/18 02:27:11;;;;;;;25.50;18.08;;;6.80;99.90;;;;;;5055090;28;20039;-86
2023/11/18 02:29:41;;;;;;;24.65;17.35;;;6.80;99.90;;;;;;5042923;28;20024;-87
2023/11/18 02:32:30;;;;;;;25.77;17.80;;;6.90;99.90;;;;;;5059144;28;20484;-86
2023/11/18 02:35:16;;;;;;;28.20;18.73;;;6.90;99.90;;;;;;5076273;28;20008;-86
2023/11/18 02:37:49;;;;;;;26.52;17.73;;;6.90;99.90;;;;;;5059357;28;20355;-86
2023/11/18 02:40:20;;;;;;;31.88;18.85;;;6.90;99.90;;;;;;5058924;28;20012;-87
2023/11/18 02:42:47;;;;;;;28.15;18.75;;;6.90;99.90;;;;;;5059207;28;20028;-87
2023/11/18 02:45:18;;;;;;;29.65;19.88;;;6.90;99.90;;;;;;5077089;28;20016;-87
2023/11/18 02:47:47;;;;;;;32.43;19.90;;;6.90;99.90;;;;;;5059330;28;20049;-87
2023/11/18 02:50:13;;;;;;;27.85;18.85;;;7.00;99.90;;;;;;5058822;28;20343;-86
2023/11/18 02:52:42;;;;;;;28.27;20.02;;;6.90;99.90;;;;;;5042523;28;20048;-86
2023/11/18 02:55:08;;;;;;;28.20;19.15;;;7.00;99.90;;;;;;5042516;28;20050;-86
2023/11/18 02:57:38;;;;;;;31.33;19.58;;;7.00;99.90;;;;;;5042502;28;20036;-86
2023/11/18 03:00:05;;;;;;;30.42;19.90;;;6.90;99.90;;;;;;5041926;28;20021;-87
2023/11/18 03:02:33;;;;;;;29.00;19.85;;;7.00;99.90;;;;;;5058008;28;20052;-85
2023/11/18 03:04:59;;;;;;;28.27;19.65;;;7.00;99.90;;;;;;5042250;28;20021;-86
2023/11/18 03:07:28;;;;;;;28.25;19.27;;;7.00;99.90;;;;;;5041517;28;20031;-86
2023/11/18 03:09:56;;;;;;;32.25;20.00;;;7.00;99.90;;;;;;5058138;28;20030;-86
2023/11/18 03:12:22;;;;;;;28.73;19.75;;;7.00;99.90;;;;;;5042232;28;20123;-86
2023/11/18 03:14:48;;;;;;;33.58;20.33;;;7.10;99.90;;;;;;5058214;28;20124;-87
2023/11/18 03:17:14;;;;;;;31.13;19.40;;;7.10;99.90;;;;;;5041414;28;20031;-86
2023/11/18 03:19:41;;;;;;;29.77;20.33;;;7.10;99.90;;;;;;5041908;28;20033;-87
2023/11/18 03:22:07;;;;;;;29.20;18.75;;;7.10;99.90;;;;;;5042617;28;20040;-87
2023/11/18 03:24:33;;;;;;;32.30;20.88;;;7.20;99.90;;;;;;5042574;28;20368;-86
2023/11/18 03:26:58;;;;;;;36.28;21.20;;;7.20;99.90;;;;;;5045972;28;20025;-86
2023/11/18 03:29:24;;;;;;;32.67;20.70;;;7.20;99.90;;;;;;5081653;28;20087;-87
2023/11/18 03:31:50;;;;;;;32.92;20.40;;;7.10;99.90;;;;;;5081789;28;20035;-86
2023/11/18 03:34:16;;;;;;;29.88;20.23;;;7.20;99.90;;;;;;5082296;28;20017;-85
2023/11/18 03:36:45;;;;;;;33.13;20.58;;;7.20;99.90;;;;;;5054018;28;20119;-86
2023/11/18 03:39:10;;;;;;;30.02;19.08;;;7.20;99.90;;;;;;5058741;28;20027;-86
2023/11/18 03:41:37;;;;;;;31.27;20.42;;;7.20;99.90;;;;;;5058182;28;20033;-87
2023/11/18 03:44:04;;;;;;;31.27;20.55;;;7.20;99.90;;;;;;5041551;28;20119;-87
2023/11/18 03:46:33;;;;;;;29.90;20.25;;;7.20;99.90;;;;;;5041345;28;20024;-87
2023/11/18 03:48:59;;;;;;;30.48;19.27;;;7.20;99.90;;;;;;5041458;28;20048;-88
2023/11/18 03:51:25;;;;;;;31.27;19.80;;;7.20;99.90;;;;;;5058331;28;20025;-86
2023/11/18 03:53:51;;;;;;;29.75;19.83;;;7.20;99.90;;;;;;5041096;28;20035;-87
2023/11/18 03:56:20;;;;;;;34.15;20.83;;;7.20;99.90;;;;;;5041644;28;20406;-86
2023/11/18 03:58:49;;;;;;;34.38;20.25;;;7.30;99.90;;;;;;5057706;28;20056;-86
2023/11/18 04:01:22;;;;;;;29.42;19.98;;;7.30;99.90;;;;;;5058758;28;20040;-86
2023/11/18 04:03:47;;;;;;;30.92;20.67;;;7.30;99.90;;;;;;5057570;28;20529;-86
2023/11/18 04:06:14;;;;;;;31.15;20.15;;;7.30;99.90;;;;;;5041615;28;20032;-87
2023/11/18 04:08:44;;;;;;;32.90;20.40;;;7.30;99.90;;;;;;5075672;28;20025;-86
2023/11/18 04:11:10;;;;;;;30.20;19.88;;;7.30;99.90;;;;;;5057527;28;20115;-86
2023/11/18 04:13:35;;;;;;;29.77;19.95;;;7.30;99.90;;;;;;5040831;28;20051;-86
2023/11/18 04:16:01;;;;;;;27.00;19.02;;;7.30;99.90;;;;;;5040979;28;20078;-86
2023/11/18 04:18:26;;;;;;;28.45;18.58;;;7.30;99.90;;;;;;5024232;28;20028;-86
2023/11/18 04:20:52;;;;;;;27.73;19.75;;;7.30;99.90;;;;;;5057504;28;20040;-88
2023/11/18 04:23:18;;;;;;;32.45;20.45;;;7.40;99.90;;;;;;5040796;28;20024;-87
2023/11/18 04:25:44;;;;;;;31.30;20.02;;;7.40;99.90;;;;;;5040843;28;20468;-87
2023/11/18 04:28:10;;;;;;;30.75;20.45;;;7.40;99.90;;;;;;5074811;28;20523;-87
2023/11/18 04:30:36;;;;;;;31.45;19.95;;;7.40;99.90;;;;;;5024272;28;20119;-88
2023/11/18 04:33:01;;;;;;;32.63;21.02;;;7.40;99.90;;;;;;5057218;28;20184;-87
2023/11/18 04:35:27;;;;;;;30.50;20.25;;;7.40;99.90;;;;;;5056799;28;20021;-87
2023/11/18 04:37:53;;;;;;;30.00;19.73;;;7.40;99.90;;;;;;5057420;28;20035;-87
2023/11/18 04:40:18;;;;;;;31.08;20.88;;;7.40;99.90;;;;;;5056994;28;20017;-88
2023/11/18 04:42:44;;;;;;;32.47;22.48;;;7.50;99.90;;;;;;5039876;28;20131;-88
2023/11/18 04:45:10;;;;;;;33.00;22.20;;;7.50;99.90;;;;;;5057153;28;20051;-87
2023/11/18 04:47:37;;;;;;;28.67;20.73;;;7.50;99.90;;;;;;5057476;28;20082;-87
2023/11/18 04:50:07;;;;;;;27.83;20.15;;;7.40;99.90;;;;;;5056562;28;20060;-88
2023/11/18 04:52:34;;;;;;;28.63;20.35;;;7.50;99.90;;;;;;5075290;28;20529;-87
2023/11/18 04:55:00;;;;;;;27.17;19.10;;;7.50;99.90;;;;;;5068293;28;20009;-87
2023/11/18 04:57:28;;;;;;;27.38;18.95;;;7.50;99.90;;;;;;5080752;28;20012;-86
2023/11/18 04:59:56;;;;;;;27.90;18.67;;;7.50;99.90;;;;;;5081085;28;20036;-87
2023/11/18 05:02:23;;;;;;;27.85;18.70;;;7.50;99.90;;;;;;5080640;28;20102;-87
2023/11/18 05:04:52;;;;;;;26.45;17.88;;;7.50;99.90;;;;;;5047718;28;20021;-87
2023/11/18 05:07:17;;;;;;;28.67;18.42;;;7.50;99.90;;;;;;5072124;28;20021;-87
2023/11/18 05:09:43;;;;;;;27.35;20.05;;;7.50;99.90;;;;;;5074564;28;20039;-87
2023/11/18 05:12:09;;;;;;;28.05;19.65;;;7.50;99.90;;;;;;5074248;28;20028;-88
2023/11/18 05:14:35;;;;;;;27.73;19.50;;;7.50;99.90;;;;;;5057968;28;20111;-88
2023/11/18 05:17:04;;;;;;;28.42;19.98;;;7.50;99.90;;;;;;5058454;28;20460;-87
2023/11/18 05:19:30;;;;;;;29.75;19.20;;;7.60;99.90;;;;;;5028875;28;20066;-88
2023/11/18 05:21:55;;;;;;;28.65;19.88;;;7.60;99.90;;;;;;5045100;28;20024;-87
2023/11/18 05:24:21;;;;;;;28.10;19.52;;;7.60;99.90;;;;;;5043280;28;20067;-87
2023/11/18 05:26:47;;;;;;;27.13;18.67;;;7.60;99.90;;;;;;5026570;28;20028;-87
2023/11/18 05:29:16;;;;;;;28.58;19.15;;;7.60;99.90;;;;;;5059926;28;20035;-87
2023/11/18 05:31:41;;;;;;;26.88;18.88;;;7.60;99.90;;;;;;5070555;28;20008;-88
2023/11/18 05:34:07;;;;;;;28.65;19.10;;;7.60;99.90;;;;;;5061651;28;20066;-87
2023/11/18 05:36:37;;;;;;;29.98;20.25;;;7.60;99.90;;;;;;5078574;28;20021;-88
2023/11/18 05:39:07;;;;;;;26.23;19.00;;;7.60;99.90;;;;;;5081145;28;20043;-87
2023/11/18 05:41:39;;;;;;;28.83;19.40;;;7.70;99.90;;;;;;5059488;28;20037;-88
2023/11/18 05:44:05;;;;;;;26.40;18.95;;;7.70;99.90;;;;;;5040841;28;20052;-88
2023/11/18 05:46:32;;;;;;;29.42;20.13;;;7.70;99.90;;;;;;5040184;28;20115;-87
2023/11/18 05:49:02;;;;;;;26.40;19.75;;;7.70;99.90;;;;;;5056747;28;20028;-87
2023/11/18 05:51:29;;;;;;;27.20;19.95;;;7.60;99.90;;;;;;5056157;28;20040;-87
2023/11/18 05:53:55;;;;;;;28.10;19.80;;;7.60;99.90;;;;;;5040201;28;20078;-88
2023/11/18 05:56:24;;;;;;;26.88;18.75;;;7.70;99.90;;;;;;5060341;28;20017;-88
2023/11/18 05:58:53;;;;;;;24.25;18.38;;;7.70;99.90;;;;;;5027687;28;20356;-88
2023/11/18 06:01:19;;;;;;;27.48;19.67;;;7.70;99.90;;;;;;5043922;28;20028;-87
2023/11/18 06:03:45;;;;;;;28.13;19.23;;;7.70;99.90;;;;;;5057092;28;20492;-88
2023/11/18 06:06:13;;;;;;;26.00;18.42;;;7.70;99.90;;;;;;5039901;28;20079;-87
2023/11/18 06:08:40;;;;;;;27.00;19.67;;;7.70;99.90;;;;;;5056421;28;20021;-87
2023/11/18 06:11:12;;;;;;;27.23;19.58;;;7.70;99.90;;;;;;5040176;28;20035;-88
2023/11/18 06:13:42;;;;;;;30.25;20.67;;;7.70;99.90;;;;;;5025075;28;20028;-88
2023/11/18 06:16:35;;;;;;;27.23;19.42;;;7.70;99.90;;;;;;5058043;28;20153;-87
2023/11/18 06:19:04;;;;;;;28.73;19.45;;;7.70;99.90;;;;;;5055970;28;20113;-88
2023/11/18 06:21:34;;;;;;;27.77;19.85;;;7.70;99.90;;;;;;5078865;28;20045;-88
2023/11/18 06:24:00;;;;;;;27.38;19.52;;;7.70;99.90;;;;;;5079715;28;20010;-88
2023/11/18 06:26:26;;;;;;;27.08;19.85;;;7.70;99.90;;;;;;5073862;28;20084;-88
2023/11/18 06:28:54;;;;;;;25.70;19.13;;;7.70;99.90;;;;;;5070941;28;20017;-87
2023/11/18 06:31:20;;;;;;;27.10;19.05;;;7.70;99.90;;;;;;5048069;28;20029;-87
2023/11/18 06:33:47;;;;;;;25.27;18.92;;;7.70;99.90;;;;;;5040143;28;20029;-87
2023/11/18 06:36:22;;;;;;;26.15;19.50;;;7.70;99.90;;;;;;5055826;28;20028;-87
2023/11/18 06:38:52;;;;;;;24.77;17.05;;;7.70;99.90;;;;;;5056200;28;20094;-87
2023/11/18 06:41:36;;;;;;;25.73;18.58;;;7.70;99.90;;;;;;5055738;28;20037;-87
2023/11/18 06:44:09;;;;;;;25.80;18.10;;;7.70;99.90;;;;;;5041282;28;20029;-87
2023/11/18 06:46:36;;;;;;;23.65;17.63;;;7.70;99.90;;;;;;5040088;28;20113;-87
2023/11/18 06:49:06;;;;;;;21.83;17.33;;;7.70;99.90;;;;;;5056027;28;20510;-89
2023/11/18 06:51:37;;;;;;;27.25;19.63;;;7.70;99.90;;;;;;5055656;28;20115;-88
2023/11/18 06:54:09;;;;;;;;;;;7.70;99.90;;;;;;5057216;28;20464;-87
2023/11/18 06:56:42;;;;;;;22.05;16.23;;;7.70;99.90;;;;;;5056783;28;19912;-87
2023/11/18 06:59:15;;;;;;;23.13;16.25;;;7.70;99.90;;;;;;5055851;28;20021;-88
2023/11/18 07:01:44;;;;;;;21.25;14.75;;;7.70;99.90;;;;;;5024046;28;20080;-86
2023/11/18 07:04:10;;;;;;;21.63;15.52;;;7.70;99.90;;;;;;5042749;28;20036;-88
2023/11/18 07:06:40;;;;;;;19.77;15.35;;;7.70;99.90;;;;;;5057738;28;20162;-87
2023/11/18 07:09:16;;;;;;;19.43;14.57;;;7.70;99.90;;;;;;5059490;28;20036;-88
2023/11/18 07:11:43;;;;;;;20.63;14.90;;;7.70;99.90;;;;;;5043375;28;20316;-88
2023/11/18 07:14:10;;;;;;;20.90;14.73;;;7.70;99.90;;;;;;5058714;28;20041;-89
2023/11/18 07:16:37;;;;;;;18.73;14.70;;;7.70;99.90;;;;;;5058907;28;20059;-88
2023/11/18 07:19:06;;;;;;;20.58;14.23;;;7.70;99.90;;;;;;5076537;28;20050;-89
2023/11/18 07:21:34;;;;;;;19.20;13.63;;;7.80;99.90;;;;;;5042203;28;20383;-87
2023/11/18 07:24:02;;;;;;;17.52;13.63;;;7.70;99.90;;;;;;5076221;28;20024;-87
2023/11/18 07:26:27;;;;;;;20.55;14.68;;;7.80;99.90;;;;;;5025284;28;20058;-87
2023/11/18 07:28:53;;;;;;;21.60;14.20;;;7.70;99.90;;;;;;5024910;28;20531;-88
2023/11/18 07:31:19;;;;;;;18.10;14.10;;;7.70;99.90;;;;;;5025558;28;20459;-87
2023/11/18 07:33:49;;;;;;;19.02;13.93;;;7.80;99.90;;;;;;5041730;28;20388;-88
2023/11/18 07:36:16;;;;;;;17.27;12.70;;;7.80;99.90;;;;;;5058220;28;20035;-87
2023/11/18 07:38:44;;;;;;;17.23;12.82;;;7.80;99.90;;;;;;5041160;28;20059;-87
2023/11/18 07:41:21;;;;;;;18.95;12.65;;;7.80;99.90;;;;;;5058493;28;20139;-89
2023/11/18 07:43:52;;;;;;;17.25;12.68;;;7.70;99.90;;;;;;5076407;28;20406;-87
2023/11/18 07:46:18;;;;;;;16.88;12.15;;;7.80;99.90;;;;;;5075875;28;20050;-88
2023/11/18 07:48:44;;;;;;;18.15;12.18;;;7.80;99.90;;;;;;5044616;28;20028;-88
2023/11/18 07:51:10;;;;;;;15.77;12.15;;;7.80;99.90;;;;;;5097175;28;20024;-86
2023/11/18 07:53:38;;;;;;;14.05;10.68;;;7.80;99.90;;;;;;5082222;28;20809;-86
2023/11/18 07:56:05;;;;;;;14.70;11.85;;;7.80;99.90;;;;;;5082048;28;20012;-87
2023/11/18 07:58:31;;;;;;;16.88;11.93;;;7.80;99.90;;;;;;5065355;28;20434;-87
2023/11/18 08:00:59;;;;;;;16.70;11.60;;;7.80;99.90;;;;;;5061179;28;20488;-87
2023/11/18 08:03:24;;;;;;;15.65;10.88;;;7.90;99.90;;;;;;5025127;28;20136;-88
2023/11/18 08:05:51;;;;;;;14.57;11.13;;;7.90;99.90;;;;;;5057637;28;20074;-87
2023/11/18 08:08:16;;;;;;;16.25;11.20;;;7.90;99.90;;;;;;5057599;28;20029;-87
2023/11/18 08:10:43;;;;;;;15.15;11.07;;;7.90;99.90;;;;;;5057257;28;20082;-87
2023/11/18 08:13:10;;;;;;;15.55;11.55;;;7.90;99.90;;;;;;5056535;28;20032;-86
2023/11/18 08:15:42;;;;;;;15.82;10.45;;;7.90;99.90;;;;;;5056730;28;20024;-87
2023/11/18 08:18:10;;;;;;;16.15;11.60;;;7.90;99.90;;;;;;5055799;28;20028;-87
2023/11/18 08:20:36;;;;;;;16.33;12.10;;;7.90;99.90;;;;;;5074029;28;20105;-86
2023/11/18 08:23:01;;;;;;;14.90;11.27;;;7.90;99.90;;;;;;5039797;28;20086;-87
2023/11/18 08:25:27;;;;;;;15.70;11.48;;;7.90;99.90;;;;;;5056746;28;20430;-87
2023/11/18 08:27:53;;;;;;;17.83;12.18;;;7.90;99.90;;;;;;5056970;28;20033;-87
2023/11/18 08:30:20;;;;;;;16.73;12.00;;;7.90;99.90;;;;;;5056577;28;20033;-87
2023/11/18 08:32:47;;;;;;;15.80;12.18;;;7.90;99.90;;;;;;5074678;28;20028;-87
2023/11/18 08:35:13;;;;;;;15.60;11.50;;;7.90;99.90;;;;;;5040043;28;20025;-87
2023/11/18 08:37:40;;;;;;;17.55;11.48;;;7.90;99.90;;;;;;5056374;28;20089;-86
2023/11/18 08:40:18;;;;;;;16.80;11.52;;;7.90;99.90;;;;;;5074495;28;20048;-87
2023/11/18 08:42:52;;;;;;;17.85;12.25;;;7.90;99.90;;;;;;5041115;28;20032;-87
2023/11/18 08:45:29;;;;;;;18.40;11.65;;;8.00;99.90;;;;;;5056242;28;20426;-87
2023/11/18 08:47:56;;;;;;;19.83;12.73;;;8.00;99.90;;;;;;5057844;28;20094;-86
2023/11/18 08:50:26;;;;;;;18.58;12.73;;;8.00;99.90;;;;;;5055840;28;20013;-87
2023/11/18 08:52:57;;;;;;;18.77;13.10;;;8.00;99.90;;;;;;5039677;28;20028;-87
2023/11/18 08:55:34;;;;;;;;;;;8.00;99.90;;;;;;5074894;28;20021;-86
2023/11/18 08:58:00;;;;;;;18.08;11.50;;;8.00;99.90;;;;;;5058130;28;19912;-88
2023/11/18 09:03:17;;;;;;;22.70;12.57;;;8.00;99.90;;;;;;5074070;28;20488;-87
2023/11/18 09:05:56;;;;;;;20.17;12.85;;;8.10;99.90;;;;;;5040888;28;20029;-86
2023/11/18 09:08:34;;;;;;;20.65;13.43;;;8.10;99.90;;;;;;5027326;28;20047;-89
2023/11/18 09:11:02;;;;;;;18.48;12.63;;;8.10;99.90;;;;;;5074820;28;20024;-88
2023/11/18 09:13:31;;;;;;;19.90;12.20;;;8.20;99.90;;;;;;5056970;28;20025;-87
2023/11/18 09:16:15;;;;;;;19.35;12.32;;;8.20;99.90;;;;;;5043449;28;20123;-87
2023/11/18 09:18:46;;;;;;;20.95;12.60;;;8.20;99.90;;;;;;5079740;28;20027;-87
2023/11/18 09:21:19;;;;;;;19.65;11.48;;;8.20;99.90;;;;;;5098163;28;20025;-87
2023/11/18 09:23:47;;;;;;;15.95;11.55;;;8.20;99.90;;;;;;5080726;28;20009;-86
2023/11/18 09:26:14;;;;;;;18.10;12.30;;;8.20;99.90;;;;;;5034879;28;20024;-88
2023/11/18 09:28:40;;;;;;;19.23;11.80;;;8.20;99.90;;;;;;5056711;28;20460;-89
2023/11/18 09:31:11;;;;;;;22.48;13.02;;;8.30;99.90;;;;;;5060296;28;20042;-88
2023/11/18 09:33:39;;;;;;;20.35;12.60;;;8.30;99.90;;;;;;5060548;28;20029;-87
2023/11/18 09:36:12;;;;;;;22.52;13.77;;;8.30;99.90;;;;;;5060140;28;20098;-87
2023/11/18 09:38:42;;;;;;;22.02;13.65;;;8.30;99.90;;;;;;5060535;28;20040;-87
2023/11/18 09:41:11;;;;;;;21.30;13.13;;;8.30;99.90;;;;;;5060257;28;20032;-87
2023/11/18 09:43:47;;;;;;;21.02;12.38;;;8.30;99.90;;;;;;5059959;28;20028;-86
2023/11/18 09:46:14;;;;;;;16.77;10.93;;;8.40;99.90;;;;;;5061225;28;20349;-87
2023/11/18 09:48:52;;;;;;;17.95;11.48;;;8.30;99.90;;;;;;5059483;28;20475;-87
2023/11/18 09:51:29;;;;;;;17.88;10.52;;;8.40;99.90;;;;;;5059825;28;20029;-87
2023/11/18 09:54:07;;;;;;;15.88;10.20;;;8.40;99.90;;;;;;5043535;28;20021;-87
2023/11/18 09:57:08;;;;;;;16.70;10.52;;;8.50;99.90;;;;;;5045091;28;20025;-87
2023/11/18 09:59:43;;;;;;;16.45;10.32;;;8.50;99.90;;;;;;5060096;28;20056;-87
2023/11/18 10:02:10;;;;;;;17.23;10.55;;;8.50;99.90;;;;;;5059234;28;20142;-87
2023/11/18 10:04:39;;;;;;;14.73;10.00;;;8.50;99.90;;;;;;5059541;28;20033;-87
2023/11/18 10:07:11;;;;;;;16.20;9.85;;;8.50;99.90;;;;;;5077309;28;20031;-87
2023/11/18 10:09:42;;;;;;;16.63;9.43;;;8.50;99.90;;;;;;5027602;28;20059;-87
2023/11/18 10:12:11;;;;;;;15.70;9.43;;;8.60;99.90;;;;;;5043488;28;20025;-87
2023/11/18 10:14:43;;;;;;;15.73;10.23;;;8.60;99.90;;;;;;5043056;28;20028;-86
2023/11/18 10:17:09;;;;;;;14.77;9.27;;;8.60;99.90;;;;;;5059535;28;20029;-87
2023/11/18 10:19:56;;;;;;;14.90;9.32;;;8.60;99.90;;;;;;5076790;28;20021;-87
2023/11/18 10:22:25;;;;;;;13.32;9.07;;;8.60;99.90;;;;;;5059319;28;20033;-86
2023/11/18 10:24:54;;;;;;;17.25;10.82;;;8.60;99.90;;;;;;5058872;28;20035;-86
2023/11/18 10:27:27;;;;;;;14.90;10.07;;;8.60;99.90;;;;;;5076710;28;20414;-87
2023/11/18 10:30:04;;;;;;;14.18;9.50;;;8.60;99.90;;;;;;5042287;28;20025;-86
2023/11/18 10:32:35;;;;;;;14.77;9.13;;;8.60;99.90;;;;;;5076421;28;20025;-87
2023/11/18 10:35:04;;;;;;;14.63;8.55;;;8.60;99.90;;;;;;5076755;28;20102;-86
2023/11/18 10:37:31;;;;;;;15.43;9.00;;;8.60;99.90;;;;;;5076798;28;20016;-86
2023/11/18 10:39:57;;;;;;;12.65;8.23;;;8.60;99.90;;;;;;5076509;28;20052;-86
2023/11/18 10:42:30;;;;;;;15.88;8.93;;;8.70;99.90;;;;;;5041767;28;20028;-86
2023/11/18 10:45:03;;;;;;;13.57;8.63;;;8.70;99.90;;;;;;5083911;28;20031;-87
2023/11/18 10:47:35;;;;;;;14.63;8.68;;;8.70;99.90;;;;;;5067302;28;20009;-87
2023/11/18 10:50:01;;;;;;;13.02;7.45;;;8.70;99.90;;;;;;5083414;28;20005;-87
2023/11/18 10:52:34;;;;;;;12.15;7.38;;;8.70;99.90;;;;;;5083671;28;20016;-87
2023/11/18 10:55:07;;;;;;;12.73;8.20;;;8.80;99.90;;;;;;5082826;28;20043;-85
2023/11/18 10:57:36;;;;;;;15.07;8.05;;;8.80;99.90;;;;;;5082071;28;20055;-87
2023/11/18 11:00:18;;;;;;;14.05;8.20;;;8.80;99.90;;;;;;5034544;28;20024;-87
2023/11/18 11:02:44;;;;;;;15.02;7.65;;;8.80;99.90;;;;;;5057964;28;20048;-86
2023/11/18 11:05:15;;;;;;;12.82;7.45;;;8.80;99.90;;;;;;5041758;28;20174;-87
2023/11/18 11:07:44;;;;;;;;;;;8.80;99.90;;;;;;5076730;28;20024;-87
2023/11/18 11:10:10;;;;;;;11.27;6.97;;;8.80;99.90;;;;;;5058804;28;19916;-86
2023/11/18 11:12:51;;;;;;;8.95;6.35;;;8.90;99.90;;;;;;5057898;28;20029;-87
2023/11/18 11:15:29;;;;;;;11.63;7.10;;;8.90;99.90;;;;;;5076340;28;20025;-87
2023/11/18 11:18:08;;;;;;;12.02;6.70;;;8.90;99.90;;;;;;5057561;28;20032;-87
2023/11/18 11:20:42;;;;;;;9.95;6.15;;;8.90;99.90;;;;;;5057784;28;20090;-88
2023/11/18 11:23:27;;;;;;;9.43;6.47;;;8.90;99.90;;;;;;5058093;28;20051;-87
2023/11/18 11:26:08;;;;;;;10.30;6.35;;;8.90;99.90;;;;;;5057692;28;20027;-87
2023/11/18 11:28:49;;;;;;;12.55;6.63;;;8.90;99.90;;;;;;5058021;28;20020;-87
2023/11/18 11:31:22;;;;;;;9.98;6.82;;;8.90;99.90;;;;;;5058332;28;20025;-87
2023/11/18 11:34:25;;;;;;;9.75;6.60;;;9.00;99.90;;;;;;5057653;28;20131;-86
2023/11/18 11:36:52;;;;;;;9.68;5.93;;;8.90;99.90;;;;;;5057772;28;20465;-87
2023/11/18 11:39:25;;;;;;;10.45;6.45;;;9.00;99.90;;;;;;5057769;28;20031;-87
2023/11/18 11:41:52;;;;;;;9.00;6.40;;;8.90;99.90;;;;;;5041900;28;20387;-87
2023/11/18 11:44:20;;;;;;;8.65;5.97;;;8.90;99.90;;;;;;5024593;28;20166;-87
2023/11/18 11:46:52;;;;;;;12.23;6.75;;;9.00;99.90;;;;;;5041080;28;20174;-86
2023/11/18 11:49:20;;;;;;;8.77;6.30;;;8.90;99.90;;;;;;5075499;28;20376;-87
2023/11/18 11:51:56;;;;;;;10.20;6.07;;;9.00;99.90;;;;;;5057324;28;20125;-87
2023/11/18 11:54:29;;;;;;;10.60;6.50;;;9.00;99.90;;;;;;5057376;28;20463;-87
2023/11/18 11:56:59;;;;;;;9.10;5.72;;;9.00;99.90;;;;;;5057508;28;20024;-87
2023/11/18 11:59:52;;;;;;;9.05;6.18;;;8.90;99.90;;;;;;5057642;28;20031;-87
2023/11/18 12:02:28;;;;;;;9.85;5.85;;;8.90;99.90;;;;;;5057300;28;20468;-87
2023/11/18 12:04:58;;;;;;;9.80;6.32;;;8.90;99.90;;;;;;5057135;28;20017;-85
2023/11/18 12:07:27;;;;;;;8.70;5.45;;;8.90;99.90;;;;;;5040963;28;20062;-86
2023/11/18 12:10:00;;;;;;;9.80;6.13;;;8.90;99.90;;;;;;5057310;28;20376;-86
2023/11/18 12:12:27;;;;;;;8.38;5.75;;;9.00;99.90;;;;;;5058154;28;20032;-86
2023/11/18 12:15:00;;;;;;;11.07;5.72;;;8.90;99.90;;;;;;5064189;28;20111;-86
2023/11/18 12:17:31;;;;;;;10.55;5.35;;;8.90;99.90;;;;;;5080993;28;20024;-86
2023/11/18 12:20:05;;;;;;;;;;;8.90;99.90;;;;;;5099575;28;20044;-86
2023/11/18 12:23:17;;;;;;;8.57;5.15;;;8.90;99.90;;;;;;5081227;28;19940;-85
2023/11/18 12:25:45;;;;;;;11.05;6.25;;;8.90;99.90;;;;;;5042769;28;20448;-87
2023/11/18 12:28:21;;;;;;;9.10;5.32;;;8.90;99.90;;;;;;5040805;28;20036;-88
2023/11/18 12:30:57;;;;;;;7.50;5.10;;;8.90;99.90;;;;;;5074574;28;20056;-85
2023/11/18 12:33:54;;;;;;;6.55;4.38;;;9.00;99.90;;;;;;5056330;28;20016;-86
2023/11/18 12:36:50;;;;;;;7.35;4.72;;;9.00;99.90;;;;;;5051359;28;20028;-87
2023/11/18 12:39:37;;;;;;;7.50;4.70;;;9.00;99.90;;;;;;5073286;28;20376;-86
2023/11/18 12:42:11;;;;;;;7.43;4.32;;;9.10;99.90;;;;;;5074299;28;20486;-87
2023/11/18 12:45:15;;;;;;;7.20;4.50;;;9.10;99.90;;;;;;5056382;28;20036;-87
2023/11/18 12:47:44;;;;;;;5.05;3.85;;;9.10;99.90;;;;;;5056390;28;20020;-87
2023/11/18 12:50:17;;;;;;;6.22;3.78;;;9.10;99.90;;;;;;5056253;28;20545;-86
2023/11/18 12:52:44;;;;;;;6.97;3.72;;;9.10;99.90;;;;;;5040181;28;20034;-86
2023/11/18 12:55:18;;;;;;;7.07;3.50;;;9.20;99.90;;;;;;5056148;28;20029;-85
2023/11/18 12:57:47;;;;;;;8.55;3.95;;;9.20;99.90;;;;;;5074101;28;20024;-86